Montreal, Canada
Current Conditions -  °F | °C
As of 11:00 PM on Friday 19 Dec 2014 (Local Time) from CYHU Reporting Station
Clear Clear  
Wind Chill: -13°   Ceiling: Unl
Heat Index: -9°   Visibility: 9mi
Dew Point: -11°   Wind: 5mph
Humidity: 86%   Direction: 280°W
Pressure: 30.24"   Gusts: NA
Location:  45.51°N, 73.55°W
Report Text: CYHU 200400Z AUTO 28004KT 9SM CLR M09/M11 A3024 RMK SLP243
Loading
Personal Weather Stations






























Interactive Weather Map New forecast layout! Learn more

10-Day Weather Forecast

Advertisements
Track Severe Weather on mobile